createdAt,value
2023-04-06T00:00:59.979Z,14.73
2023-04-06T00:03:27.025Z,9.93
2023-04-06T00:05:54.224Z,13.87
2023-04-06T00:08:22.523Z,10.13
2023-04-06T00:10:49.534Z,10.50
2023-04-06T00:13:16.412Z,11.93
2023-04-06T00:15:43.328Z,12.87
2023-04-06T00:18:10.481Z,15.73
2023-04-06T00:20:37.555Z,12.83
2023-04-06T00:23:04.778Z,13.40
2023-04-06T00:25:31.723Z,15.30
2023-04-06T00:27:58.687Z,13.10
2023-04-06T00:30:25.681Z,10.10
2023-04-06T00:32:52.657Z,12.03
2023-04-06T00:35:19.701Z,10.77
2023-04-06T00:37:49.308Z,11.83
2023-04-06T00:40:16.907Z,13.23
2023-04-06T00:42:43.865Z,11.93
2023-04-06T00:45:11.268Z,11.83
2023-04-06T00:47:38.421Z,13.50
2023-04-06T00:50:05.980Z,17.90
2023-04-06T00:52:32.937Z,11.07
2023-04-06T00:54:59.766Z,12.40
2023-04-06T00:57:26.624Z,12.07
2023-04-06T00:59:54.133Z,11.97
2023-04-06T01:02:21.386Z,12.23
2023-04-06T01:04:48.293Z,12.33
2023-04-06T01:07:15.586Z,12.83
2023-04-06T01:09:43.124Z,11.53
2023-04-06T01:12:10.805Z,15.57
2023-04-06T01:14:38.010Z,13.57
2023-04-06T01:17:05.195Z,12.10
2023-04-06T01:19:32.249Z,13.53
2023-04-06T01:21:59.268Z,13.03
2023-04-06T01:24:26.387Z,13.33
2023-04-06T01:26:53.297Z,10.17
2023-04-06T01:29:20.586Z,12.87
2023-04-06T01:31:47.551Z,15.10
2023-04-06T01:34:14.414Z,10.80
2023-04-06T01:36:41.660Z,12.30
2023-04-06T01:39:09.171Z,13.07
2023-04-06T01:41:36.690Z,12.43
2023-04-06T01:44:04.120Z,12.30
2023-04-06T01:46:31.363Z,11.60
2023-04-06T01:48:58.314Z,10.57
2023-04-06T01:51:26.917Z,12.57
2023-04-06T01:53:53.829Z,12.07
2023-04-06T01:56:21.310Z,11.43
2023-04-06T01:58:48.437Z,14.40
2023-04-06T02:01:15.838Z,16.17
2023-04-06T02:03:42.747Z,12.73
2023-04-06T02:06:09.770Z,13.27
2023-04-06T02:08:36.608Z,13.13
2023-04-06T02:11:03.525Z,13.13
2023-04-06T02:13:30.560Z,14.20
2023-04-06T02:15:58.179Z,12.70
2023-04-06T02:18:25.073Z,18.27
2023-04-06T02:20:52.098Z,13.57
2023-04-06T02:23:19.029Z,14.47
2023-04-06T02:25:45.942Z,13.60
2023-04-06T02:28:12.847Z,13.70
2023-04-06T02:30:39.776Z,14.13
2023-04-06T02:33:06.715Z,12.10
2023-04-06T02:35:33.597Z,14.77
2023-04-06T02:38:00.499Z,14.73
2023-04-06T02:40:27.509Z,15.23
2023-04-06T02:42:54.428Z,14.07
2023-04-06T02:45:21.582Z,12.33
2023-04-06T02:47:48.501Z,16.80
2023-04-06T02:50:15.697Z,14.23
2023-04-06T02:52:42.793Z,13.73
2023-04-06T02:55:10.185Z,14.57
2023-04-06T02:57:36.997Z,13.23
2023-04-06T03:00:04.307Z,12.20
2023-04-06T03:02:31.143Z,14.77
2023-04-06T03:04:57.980Z,13.97
2023-04-06T03:07:24.843Z,13.80
2023-04-06T03:09:51.822Z,16.77
2023-04-06T03:12:18.930Z,11.83
2023-04-06T03:14:45.963Z,13.60
2023-04-06T03:17:13.279Z,15.07
2023-04-06T03:19:40.244Z,14.87
2023-04-06T03:22:07.070Z,14.07
2023-04-06T03:24:33.891Z,16.43
2023-04-06T03:27:01.416Z,15.37
2023-04-06T03:29:28.331Z,13.43
2023-04-06T03:31:55.382Z,15.97
2023-04-06T03:34:22.253Z,15.30
2023-04-06T03:36:56.415Z,14.10
2023-04-06T03:39:29.870Z,15.37
2023-04-06T03:41:56.614Z,17.37
2023-04-06T03:44:23.423Z,18.90
2023-04-06T03:46:50.414Z,14.57
2023-04-06T03:49:17.361Z,15.23
2023-04-06T03:51:44.264Z,14.93
2023-04-06T03:54:11.234Z,17.17
2023-04-06T03:56:38.071Z,13.10
2023-04-06T03:59:05.499Z,15.20
2023-04-06T04:01:32.395Z,16.43
2023-04-06T04:03:59.322Z,26.63
2023-04-06T04:06:26.337Z,16.47
2023-04-06T04:08:53.238Z,19.73
2023-04-06T04:11:20.068Z,17.30
2023-04-06T04:13:46.964Z,17.30
2023-04-06T04:16:13.882Z,18.27
2023-04-06T04:18:40.850Z,14.83
2023-04-06T04:21:07.793Z,14.97
2023-04-06T04:23:37.117Z,15.47
2023-04-06T04:26:04.407Z,18.77
2023-04-06T04:28:31.376Z,18.00
2023-04-06T04:30:58.251Z,19.60
2023-04-06T04:33:25.217Z,15.63
2023-04-06T04:35:52.124Z,17.93
2023-04-06T04:38:19.309Z,16.33
2023-04-06T04:40:46.319Z,18.73
2023-04-06T04:43:13.106Z,17.07
2023-04-06T04:45:40.056Z,15.13
2023-04-06T04:48:08.865Z,16.73
2023-04-06T04:50:35.910Z,15.83
2023-04-06T04:53:02.867Z,15.50
2023-04-06T04:55:30.406Z,18.13
2023-04-06T04:57:57.315Z,22.30
2023-04-06T05:00:24.323Z,18.27
2023-04-06T05:02:51.234Z,18.37
2023-04-06T05:05:18.149Z,18.47
2023-04-06T05:07:45.061Z,19.60
2023-04-06T05:10:12.086Z,19.13
2023-04-06T05:12:39.259Z,18.53
2023-04-06T05:15:06.635Z,17.87
2023-04-06T05:17:34.502Z,16.97
2023-04-06T05:20:01.560Z,17.80
2023-04-06T05:22:28.546Z,16.23
2023-04-06T05:24:55.410Z,20.30
2023-04-06T05:27:22.302Z,17.87
2023-04-06T05:29:49.244Z,18.77
2023-04-06T05:32:16.188Z,16.00
2023-04-06T05:34:43.084Z,17.20
2023-04-06T05:37:09.966Z,16.97
2023-04-06T05:39:36.894Z,19.00
2023-04-06T05:42:07.708Z,17.67
2023-04-06T05:44:34.663Z,19.43
2023-04-06T05:47:01.713Z,18.07
2023-04-06T05:49:28.686Z,16.90
2023-04-06T05:51:56.543Z,22.60
2023-04-06T05:54:23.487Z,19.03
2023-04-06T05:56:50.326Z,21.37
2023-04-06T05:59:17.332Z,14.00
2023-04-06T06:01:44.337Z,17.80
2023-04-06T06:04:11.209Z,14.63
2023-04-06T06:06:38.106Z,19.47
2023-04-06T06:09:04.979Z,22.33
2023-04-06T06:11:31.859Z,15.37
2023-04-06T06:13:58.686Z,18.23
2023-04-06T06:16:25.720Z,16.93
2023-04-06T06:18:52.543Z,18.30
2023-04-06T06:21:19.373Z,17.73
2023-04-06T06:23:48.356Z,18.40
2023-04-06T06:26:15.262Z,17.67
2023-04-06T06:28:42.154Z,17.83
2023-04-06T06:31:09.112Z,17.47
2023-04-06T06:33:36.022Z,18.97
2023-04-06T06:36:02.906Z,17.63
2023-04-06T06:38:29.737Z,18.07
2023-04-06T06:40:56.585Z,18.63
2023-04-06T06:43:23.358Z,16.90
2023-04-06T06:45:50.745Z,19.73
2023-04-06T06:48:17.608Z,16.10
2023-04-06T06:50:44.522Z,19.20
2023-04-06T06:53:11.992Z,15.50
2023-04-06T06:55:38.876Z,20.63
2023-04-06T06:58:07.124Z,18.53
2023-04-06T07:00:34.227Z,15.73
2023-04-06T07:03:01.226Z,16.97
2023-04-06T07:05:29.172Z,16.87
2023-04-06T07:07:56.752Z,16.20
2023-04-06T07:10:23.938Z,17.77
2023-04-06T07:12:50.917Z,13.83
2023-04-06T07:15:18.355Z,17.27
2023-04-06T07:17:48.588Z,20.17
2023-04-06T07:20:16.015Z,17.83
2023-04-06T07:22:45.479Z,16.13
2023-04-06T07:25:12.502Z,18.53
2023-04-06T07:27:39.396Z,17.43
2023-04-06T07:30:06.856Z,18.37
2023-04-06T07:32:35.691Z,20.17
2023-04-06T07:35:03.071Z,17.27
2023-04-06T07:37:29.954Z,15.77
2023-04-06T07:39:56.836Z,19.53
2023-04-06T07:42:23.754Z,17.07
2023-04-06T07:44:50.696Z,20.43
2023-04-06T07:47:17.473Z,20.83
2023-04-06T07:49:44.371Z,15.40
2023-04-06T07:52:11.163Z,21.73
2023-04-06T07:54:37.968Z,17.90
2023-04-06T07:57:04.808Z,17.37
2023-04-06T07:59:31.674Z,19.67
2023-04-06T08:01:58.584Z,18.23
2023-04-06T08:04:25.569Z,17.00
2023-04-06T08:06:52.525Z,17.97
2023-04-06T08:09:19.340Z,17.03
2023-04-06T08:11:47.280Z,18.13
2023-04-06T08:14:14.157Z,16.43
2023-04-06T08:16:40.999Z,17.87
2023-04-06T08:19:10.308Z,19.30
2023-04-06T08:21:37.280Z,16.27
2023-04-06T08:24:04.697Z,18.23
2023-04-06T08:26:31.466Z,19.17
2023-04-06T08:28:58.365Z,19.13
2023-04-06T08:31:25.402Z,20.87
2023-04-06T08:33:52.372Z,18.57
2023-04-06T08:36:23.890Z,16.37
2023-04-06T08:38:51.339Z,18.37
2023-04-06T08:41:19.092Z,20.70
2023-04-06T08:43:51.012Z,18.80
2023-04-06T08:46:19.553Z,17.33
2023-04-06T08:48:47.062Z,19.37
2023-04-06T08:51:14.422Z,17.87
2023-04-06T08:53:41.862Z,19.53
2023-04-06T08:56:11.100Z,17.67
2023-04-06T08:58:40.739Z,19.43
2023-04-06T09:01:12.987Z,19.10
2023-04-06T09:03:41.915Z,20.47
2023-04-06T09:06:09.780Z,17.80
2023-04-06T09:08:39.478Z,19.30
2023-04-06T09:11:09.455Z,21.93
2023-04-06T09:13:47.984Z,17.70
2023-04-06T09:16:15.214Z,18.33
2023-04-06T09:18:42.576Z,18.50
2023-04-06T09:21:10.455Z,17.10
2023-04-06T09:23:37.607Z,18.10
2023-04-06T09:26:15.967Z,17.87
2023-04-06T09:28:47.974Z,15.33
2023-04-06T09:31:17.152Z,19.60
2023-04-06T09:33:46.519Z,17.63
2023-04-06T09:36:15.750Z,18.20
2023-04-06T09:39:03.594Z,17.13
2023-04-06T09:41:33.303Z,19.40
2023-04-06T09:44:13.665Z,15.63
2023-04-06T09:46:58.836Z,17.73
2023-04-06T09:49:30.916Z,16.80
2023-04-06T09:52:01.455Z,12.07
2023-04-06T09:54:31.054Z,14.30
2023-04-06T09:57:20.875Z,13.00
2023-04-06T10:00:12.199Z,11.93
2023-04-06T10:03:00.841Z,13.10
2023-04-06T10:05:27.720Z,13.67
2023-04-06T10:08:00.727Z,12.27
2023-04-06T10:10:29.759Z,10.67
2023-04-06T10:12:57.804Z,11.37
2023-04-06T10:15:25.384Z,14.47
2023-04-06T10:17:53.037Z,12.30
2023-04-06T10:20:42.595Z,11.43
2023-04-06T10:23:21.108Z,12.73
2023-04-06T10:25:58.448Z,10.47
2023-04-06T10:28:26.293Z,12.73
2023-04-06T10:31:00.881Z,10.77
2023-04-06T10:33:28.949Z,10.10
2023-04-06T10:35:58.755Z,10.90
2023-04-06T10:38:38.337Z,12.77
2023-04-06T10:41:09.870Z,11.50
2023-04-06T10:43:39.000Z,10.17
2023-04-06T10:46:07.878Z,12.00
2023-04-06T10:48:42.800Z,12.50
2023-04-06T10:51:13.534Z,10.60
2023-04-06T10:53:43.843Z,11.17
2023-04-06T10:56:12.971Z,10.87
2023-04-06T10:58:45.860Z,9.33
2023-04-06T11:01:12.931Z,9.50
2023-04-06T11:03:52.956Z,10.23
2023-04-06T11:06:24.549Z,10.90
2023-04-06T11:08:52.754Z,11.23
2023-04-06T11:11:21.843Z,11.70
2023-04-06T11:13:54.809Z,10.23
2023-04-06T11:16:27.065Z,10.40
2023-04-06T11:18:57.221Z,12.00
2023-04-06T11:21:48.381Z,11.27
2023-04-06T11:24:20.951Z,11.70
2023-04-06T11:26:58.711Z,9.03
2023-04-06T11:29:28.777Z,8.70
2023-04-06T11:32:02.940Z,11.10
2023-04-06T11:34:31.565Z,14.63
2023-04-06T11:37:00.888Z,12.53
2023-04-06T11:39:29.480Z,10.33
2023-04-06T11:41:59.998Z,8.90
2023-04-06T11:44:39.700Z,11.73
2023-04-06T11:47:08.586Z,11.23
2023-04-06T11:49:38.787Z,9.73
2023-04-06T11:52:18.630Z,13.97
2023-04-06T11:54:46.176Z,11.00
2023-04-06T11:57:13.139Z,11.00
2023-04-06T11:59:40.164Z,8.60
2023-04-06T12:02:07.348Z,11.10
2023-04-06T12:04:34.258Z,11.10
2023-04-06T12:07:01.548Z,10.87
2023-04-06T12:09:28.642Z,10.73
2023-04-06T12:11:55.468Z,8.83
2023-04-06T12:14:22.429Z,11.33
2023-04-06T12:16:49.692Z,13.23
2023-04-06T12:19:16.536Z,15.93
2023-04-06T12:21:43.529Z,10.80
2023-04-06T12:24:10.465Z,11.50
2023-04-06T12:26:38.298Z,10.90
2023-04-06T12:29:08.268Z,11.23
2023-04-06T12:31:44.094Z,9.93
2023-04-06T12:34:11.104Z,10.67
2023-04-06T12:36:39.391Z,12.63
2023-04-06T12:39:06.690Z,11.27
2023-04-06T12:41:33.695Z,10.43
2023-04-06T12:44:00.852Z,12.97
2023-04-06T12:46:27.961Z,9.93
2023-04-06T12:48:56.146Z,11.63
2023-04-06T12:51:23.546Z,12.37
2023-04-06T12:53:51.350Z,12.20
2023-04-06T12:56:19.333Z,12.37
2023-04-06T12:58:46.908Z,10.57
2023-04-06T13:01:14.380Z,10.87
2023-04-06T13:03:42.361Z,11.40
2023-04-06T13:06:10.555Z,10.30
2023-04-06T13:08:39.136Z,11.03
2023-04-06T13:11:09.217Z,10.00
2023-04-06T13:13:36.645Z,9.80
2023-04-06T13:16:08.856Z,9.83
2023-04-06T13:18:37.892Z,10.97
2023-04-06T13:21:06.816Z,11.60
2023-04-06T13:23:34.192Z,10.07
2023-04-06T13:26:08.512Z,11.80
2023-04-06T13:28:38.837Z,10.03
2023-04-06T13:31:06.860Z,12.47
2023-04-06T13:33:33.905Z,11.87
2023-04-06T13:36:01.090Z,13.70
2023-04-06T13:38:28.363Z,8.63
2023-04-06T13:40:55.613Z,13.37
2023-04-06T13:43:22.574Z,10.03
2023-04-06T13:45:55.938Z,10.73
2023-04-06T13:48:23.127Z,10.70
2023-04-06T13:50:50.000Z,12.97
2023-04-06T13:53:16.812Z,9.77
2023-04-06T13:55:43.596Z,9.27
2023-04-06T13:58:10.638Z,9.30
2023-04-06T14:00:38.030Z,9.33
2023-04-06T14:03:05.439Z,9.57
2023-04-06T14:05:33.501Z,9.97
2023-04-06T14:08:00.515Z,12.60
2023-04-06T14:10:28.783Z,11.23
2023-04-06T14:12:56.638Z,10.80
2023-04-06T14:15:24.908Z,8.63
2023-04-06T14:17:52.617Z,9.87
2023-04-06T14:20:20.160Z,10.47
2023-04-06T14:22:47.746Z,10.50
2023-04-06T14:25:14.808Z,11.47
2023-04-06T14:27:41.714Z,9.67
2023-04-06T14:30:09.598Z,9.70
2023-04-06T14:32:37.624Z,9.33
2023-04-06T14:35:08.486Z,11.27
2023-04-06T14:37:35.679Z,10.37
2023-04-06T14:40:05.785Z,7.20
2023-04-06T14:42:32.641Z,9.93
2023-04-06T14:44:59.491Z,8.97
2023-04-06T14:47:26.316Z,10.53
2023-04-06T14:49:54.445Z,10.57
2023-04-06T14:52:21.358Z,8.50
2023-04-06T14:54:48.270Z,9.27
2023-04-06T14:57:15.421Z,10.20
2023-04-06T14:59:42.378Z,8.73
2023-04-06T15:02:09.462Z,11.27
2023-04-06T15:04:37.437Z,11.13
2023-04-06T15:07:04.475Z,8.23
2023-04-06T15:09:31.598Z,9.87
2023-04-06T15:11:58.708Z,11.27
2023-04-06T15:14:26.087Z,9.07
2023-04-06T15:16:53.020Z,8.67
2023-04-06T15:19:19.983Z,9.70
2023-04-06T15:21:46.974Z,8.67
2023-04-06T15:24:13.790Z,10.03
2023-04-06T15:26:41.022Z,9.20
2023-04-06T15:29:07.957Z,8.90
2023-04-06T15:31:38.249Z,9.87
2023-04-06T15:34:08.848Z,9.60
2023-04-06T15:36:36.370Z,10.63
2023-04-06T15:39:04.419Z,13.00
2023-04-06T15:41:31.719Z,11.77
2023-04-06T15:43:58.681Z,11.73
2023-04-06T15:46:28.230Z,10.90
2023-04-06T15:48:56.228Z,9.73
2023-04-06T15:51:24.227Z,10.50
2023-04-06T15:53:51.241Z,12.40
2023-04-06T15:56:18.079Z,9.90
2023-04-06T15:58:45.230Z,11.17
2023-04-06T16:01:21.402Z,10.47
2023-04-06T16:03:48.555Z,11.53
2023-04-06T16:06:15.565Z,12.53
2023-04-06T16:08:42.490Z,10.43
2023-04-06T16:11:10.440Z,10.63
2023-04-06T16:13:37.758Z,9.80
2023-04-06T16:16:06.055Z,11.00
2023-04-06T16:18:35.791Z,9.93
2023-04-06T16:21:03.545Z,10.60
2023-04-06T16:23:30.508Z,9.80
2023-04-06T16:26:00.741Z,13.13
2023-04-06T16:28:27.608Z,11.23
2023-04-06T16:30:54.380Z,10.67
2023-04-06T16:33:23.156Z,11.37
2023-04-06T16:35:50.066Z,13.47
2023-04-06T16:38:17.349Z,10.77
2023-04-06T16:40:44.243Z,11.73
2023-04-06T16:43:11.404Z,12.33
2023-04-06T16:45:38.680Z,9.87
2023-04-06T16:48:06.317Z,10.23
2023-04-06T16:50:33.645Z,14.40
2023-04-06T16:53:02.251Z,10.23
2023-04-06T16:55:29.239Z,11.13
2023-04-06T16:57:56.667Z,12.17
2023-04-06T17:00:23.733Z,10.77
2023-04-06T17:02:50.727Z,10.97
2023-04-06T17:05:24.528Z,10.67
2023-04-06T17:07:51.626Z,9.63
2023-04-06T17:10:24.005Z,9.63
2023-04-06T17:13:00.099Z,8.50
2023-04-06T17:15:28.602Z,9.83
2023-04-06T17:17:55.755Z,11.70
2023-04-06T17:20:22.581Z,11.70
2023-04-06T17:22:49.623Z,9.87
2023-04-06T17:25:16.800Z,9.83
2023-04-06T17:27:43.900Z,13.13
2023-04-06T17:30:12.305Z,11.97
2023-04-06T17:32:39.350Z,10.23
2023-04-06T17:35:06.709Z,9.80
2023-04-06T17:37:33.800Z,10.67
2023-04-06T17:40:00.669Z,8.87
2023-04-06T17:42:27.648Z,9.57
2023-04-06T17:44:54.660Z,9.50
2023-04-06T17:47:21.492Z,10.77
2023-04-06T17:49:49.146Z,10.07
2023-04-06T17:52:16.075Z,10.27
2023-04-06T17:54:42.986Z,10.60
2023-04-06T17:57:09.793Z,10.93
2023-04-06T17:59:36.583Z,13.00
2023-04-06T18:02:04.401Z,10.80
2023-04-06T18:04:31.563Z,11.70
2023-04-06T18:06:58.521Z,11.27
2023-04-06T18:11:57.229Z,14.10
2023-04-06T18:14:24.464Z,11.20
2023-04-06T18:16:51.296Z,12.67
2023-04-06T18:19:18.042Z,11.90
2023-04-06T18:21:44.823Z,13.03
2023-04-06T18:24:18.771Z,12.20
2023-04-06T18:26:50.211Z,12.30
2023-04-06T18:29:17.006Z,14.17
2023-04-06T18:31:44.845Z,13.37
2023-04-06T18:34:11.758Z,15.23
2023-04-06T18:36:38.619Z,15.30
2023-04-06T18:39:05.614Z,15.77
2023-04-06T18:41:32.424Z,13.33
2023-04-06T18:43:59.176Z,14.00
2023-04-06T18:46:26.060Z,16.33
2023-04-06T18:48:52.883Z,18.53
2023-04-06T18:51:19.640Z,14.83
2023-04-06T18:53:46.743Z,16.93
2023-04-06T18:56:15.768Z,17.03
2023-04-06T18:58:42.777Z,17.07
2023-04-06T19:01:09.660Z,15.00
2023-04-06T19:03:37.611Z,17.53
2023-04-06T19:06:07.883Z,16.53
2023-04-06T19:08:34.958Z,17.87
2023-04-06T19:11:07.383Z,17.10
2023-04-06T19:13:34.640Z,19.27
2023-04-06T19:16:02.097Z,19.90
2023-04-06T19:18:29.000Z,21.30
2023-04-06T19:20:55.838Z,23.07
2023-04-06T19:23:22.836Z,26.20
2023-04-06T19:25:49.699Z,22.23
2023-04-06T19:28:17.415Z,25.83
2023-04-06T19:30:44.253Z,22.63
2023-04-06T19:33:11.193Z,23.60
2023-04-06T19:35:37.999Z,23.10
2023-04-06T19:38:04.825Z,22.43
2023-04-06T19:40:31.624Z,25.70
2023-04-06T19:42:58.474Z,24.63
2023-04-06T19:45:25.492Z,26.10
2023-04-06T19:47:52.376Z,26.67
2023-04-06T19:50:19.247Z,24.70
2023-04-06T19:52:46.000Z,24.73
2023-04-06T19:55:12.889Z,27.07
2023-04-06T19:57:39.685Z,23.90
2023-04-06T20:00:07.130Z,24.57
2023-04-06T20:02:33.943Z,24.63
2023-04-06T20:05:00.888Z,22.60
2023-04-06T20:07:27.703Z,27.93
2023-04-06T20:09:54.489Z,27.80
2023-04-06T20:12:21.414Z,25.93
2023-04-06T20:14:48.186Z,25.10
2023-04-06T20:17:14.960Z,26.00
2023-04-06T20:19:41.795Z,27.30
2023-04-06T20:22:08.797Z,29.40
2023-04-06T20:24:35.654Z,31.97
2023-04-06T20:27:03.134Z,27.67
2023-04-06T20:29:29.956Z,27.67
2023-04-06T20:31:58.245Z,31.80
2023-04-06T20:34:28.790Z,30.13
2023-04-06T20:36:56.898Z,28.30
2023-04-06T20:39:24.380Z,30.40
2023-04-06T20:41:52.179Z,28.07
2023-04-06T20:44:21.277Z,31.47
2023-04-06T20:46:49.199Z,28.40
2023-04-06T20:49:16.131Z,26.03
2023-04-06T20:51:42.921Z,28.90
2023-04-06T20:54:09.762Z,27.17
2023-04-06T20:56:36.512Z,27.97
2023-04-06T20:59:05.131Z,27.17
2023-04-06T21:01:32.206Z,26.03
2023-04-06T21:04:00.675Z,28.17
2023-04-06T21:06:31.985Z,23.43
2023-04-06T21:09:01.818Z,25.17
2023-04-06T21:11:28.725Z,25.07
2023-04-06T21:13:55.785Z,22.77
2023-04-06T21:16:22.881Z,23.97
2023-04-06T21:18:49.993Z,24.47
2023-04-06T21:21:16.784Z,24.87
2023-04-06T21:23:43.599Z,22.27
2023-04-06T21:26:12.898Z,26.07
2023-04-06T21:28:39.674Z,24.60
2023-04-06T21:31:08.690Z,20.43
2023-04-06T21:33:35.891Z,26.10
2023-04-06T21:36:07.768Z,24.87
2023-04-06T21:38:37.766Z,23.47
2023-04-06T21:41:04.894Z,25.33
2023-04-06T21:43:31.767Z,20.90
2023-04-06T21:45:58.652Z,27.63
2023-04-06T21:48:25.671Z,23.60
2023-04-06T21:50:52.562Z,26.40
2023-04-06T21:53:19.372Z,26.60
2023-04-06T21:55:46.674Z,20.33
2023-04-06T21:58:14.991Z,25.00
2023-04-06T22:00:42.194Z,22.30
2023-04-06T22:03:09.297Z,21.40
2023-04-06T22:05:38.384Z,25.47
2023-04-06T22:08:05.384Z,22.20
2023-04-06T22:10:32.176Z,20.70
2023-04-06T22:12:58.982Z,20.83
2023-04-06T22:15:26.617Z,21.87
2023-04-06T22:17:53.559Z,20.77
2023-04-06T22:20:20.470Z,19.73
2023-04-06T22:22:47.825Z,18.70
2023-04-06T22:25:14.638Z,22.40
2023-04-06T22:27:41.491Z,20.57
2023-04-06T22:30:08.882Z,20.77
2023-04-06T22:32:35.748Z,24.53
2023-04-06T22:35:02.567Z,24.40
2023-04-06T22:37:29.435Z,22.70
2023-04-06T22:39:56.838Z,21.90
2023-04-06T22:42:23.640Z,21.43
2023-04-06T22:44:50.460Z,22.07
2023-04-06T22:47:17.360Z,18.17
2023-04-06T22:49:44.205Z,19.17
2023-04-06T22:52:11.034Z,17.13
2023-04-06T22:54:37.954Z,15.93
2023-04-06T22:57:04.768Z,16.33
2023-04-06T22:59:31.591Z,17.53
2023-04-06T23:01:58.528Z,19.30
2023-04-06T23:04:25.810Z,18.00
2023-04-06T23:06:52.726Z,16.50
2023-04-06T23:09:19.538Z,15.97
2023-04-06T23:11:46.353Z,16.87
2023-04-06T23:14:13.252Z,15.07
2023-04-06T23:16:40.302Z,15.40
2023-04-06T23:19:07.298Z,15.77
2023-04-06T23:21:34.595Z,17.57
2023-04-06T23:24:01.684Z,13.83
2023-04-06T23:26:28.494Z,17.80
2023-04-06T23:28:55.435Z,14.40
2023-04-06T23:31:22.193Z,17.27
2023-04-06T23:33:48.916Z,17.13
2023-04-06T23:36:15.775Z,12.43
2023-04-06T23:38:42.680Z,13.87
2023-04-06T23:41:13.229Z,12.53
2023-04-06T23:43:40.023Z,14.00
2023-04-06T23:46:06.871Z,13.97
2023-04-06T23:48:33.760Z,12.93
2023-04-06T23:51:00.533Z,10.73
2023-04-06T23:53:28.255Z,13.37
2023-04-06T23:55:55.516Z,10.73
2023-04-06T23:58:22.285Z,9.70
